createdAt,value
2018-02-05T00:00:33.870Z,22.43
2018-02-05T00:03:02.244Z,23.37
2018-02-05T00:05:30.559Z,24.30
2018-02-05T00:07:58.581Z,23.57
2018-02-05T00:10:26.131Z,29.03
2018-02-05T00:12:54.099Z,23.10
2018-02-05T00:15:21.671Z,21.97
2018-02-05T00:17:50.352Z,23.13
2018-02-05T00:20:17.923Z,27.83
2018-02-05T00:22:46.296Z,22.60
2018-02-05T00:25:14.633Z,19.43
2018-02-05T00:27:42.949Z,21.60
2018-02-05T00:30:11.283Z,22.73
2018-02-05T00:32:39.624Z,23.83
2018-02-05T00:35:07.194Z,24.83
2018-02-05T00:37:35.160Z,24.73
2018-02-05T00:40:03.496Z,25.97
2018-02-05T00:42:31.516Z,25.70
2018-02-05T00:44:59.127Z,25.10
2018-02-05T00:47:27.450Z,22.33
2018-02-05T00:49:55.424Z,24.30
2018-02-05T00:52:23.742Z,21.00
2018-02-05T00:54:52.069Z,29.97
2018-02-05T00:57:19.631Z,21.13
2018-02-05T00:59:47.587Z,30.33
2018-02-05T01:02:15.918Z,24.93
2018-02-05T01:04:43.887Z,22.67
2018-02-05T01:07:12.203Z,21.17
2018-02-05T01:09:39.772Z,30.60
2018-02-05T01:12:08.100Z,23.70
2018-02-05T01:14:36.059Z,22.73
2018-02-05T01:17:04.006Z,25.00
2018-02-05T01:19:32.348Z,27.63
2018-02-05T01:22:01.042Z,25.07
2018-02-05T01:24:28.628Z,24.53
2018-02-05T01:26:56.578Z,24.70
2018-02-05T01:29:24.140Z,23.80
2018-02-05T01:31:52.095Z,23.97
2018-02-05T01:34:20.402Z,23.07
2018-02-05T01:36:49.013Z,24.90
2018-02-05T01:39:16.958Z,23.77
2018-02-05T01:41:44.544Z,26.77
2018-02-05T01:44:12.496Z,30.37
2018-02-05T01:46:41.763Z,25.67
2018-02-05T01:49:09.315Z,22.47
2018-02-05T01:51:37.693Z,23.50
2018-02-05T01:54:06.016Z,24.80
2018-02-05T01:56:34.136Z,22.87
2018-02-05T01:59:01.682Z,25.37
2018-02-05T02:01:29.652Z,23.20
2018-02-05T02:03:58.046Z,19.67
2018-02-05T02:06:26.013Z,23.00
2018-02-05T02:08:53.575Z,22.03
2018-02-05T02:11:22.274Z,23.73
2018-02-05T02:13:49.843Z,22.23
2018-02-05T02:16:17.809Z,23.63
2018-02-05T02:18:45.359Z,20.70
2018-02-05T02:21:13.715Z,24.87
2018-02-05T02:23:42.032Z,25.67
2018-02-05T02:26:10.372Z,25.50
2018-02-05T02:28:38.746Z,24.53
2018-02-05T02:31:07.096Z,25.90
2018-02-05T02:33:35.423Z,24.83
2018-02-05T02:36:03.762Z,23.43
2018-02-05T02:38:32.150Z,22.53
2018-02-05T02:41:00.483Z,25.40
2018-02-05T02:43:29.553Z,24.83
2018-02-05T02:45:57.563Z,24.13
2018-02-05T02:48:25.586Z,22.43
2018-02-05T02:50:53.652Z,25.87
2018-02-05T02:53:21.230Z,21.40
2018-02-05T02:55:49.183Z,25.20
2018-02-05T02:58:17.563Z,21.73
2018-02-05T03:00:45.889Z,23.00
2018-02-05T03:03:14.231Z,24.47
2018-02-05T03:05:42.562Z,21.37
2018-02-05T03:08:10.912Z,23.10
2018-02-05T03:10:40.080Z,25.87
2018-02-05T03:13:07.646Z,24.93
2018-02-05T03:15:35.980Z,22.73
2018-02-05T03:18:04.331Z,21.80
2018-02-05T03:20:31.895Z,22.73
2018-02-05T03:22:59.898Z,25.23
2018-02-05T03:25:27.858Z,21.07
2018-02-05T03:27:55.819Z,27.37
2018-02-05T03:30:24.139Z,25.80
2018-02-05T03:32:51.707Z,21.97
2018-02-05T03:35:19.650Z,23.57
2018-02-05T03:37:47.215Z,26.33
2018-02-05T03:40:15.912Z,28.40
2018-02-05T03:42:46.758Z,23.70
2018-02-05T03:45:15.079Z,23.37
2018-02-05T03:47:43.414Z,26.97
2018-02-05T03:50:11.732Z,23.30
2018-02-05T03:52:39.701Z,24.13
2018-02-05T03:55:08.019Z,23.23
2018-02-05T03:57:35.594Z,19.80
2018-02-05T04:00:03.548Z,23.30
2018-02-05T04:02:31.122Z,23.90
2018-02-05T04:04:59.124Z,22.00
2018-02-05T04:07:27.430Z,23.53
2018-02-05T04:09:55.363Z,24.83
2018-02-05T04:12:22.931Z,25.13
2018-02-05T04:14:50.947Z,21.83
2018-02-05T04:17:19.279Z,26.97
2018-02-05T04:19:47.606Z,25.77
2018-02-05T04:22:15.980Z,24.70
2018-02-05T04:24:44.331Z,25.10
2018-02-05T04:27:12.669Z,25.13
2018-02-05T04:29:41.003Z,26.40
2018-02-05T04:32:08.986Z,20.90
2018-02-05T04:34:36.611Z,22.63
2018-02-05T04:37:05.068Z,25.83
2018-02-05T04:39:33.075Z,26.10
2018-02-05T04:42:01.462Z,24.57
2018-02-05T04:44:30.165Z,27.43
2018-02-05T04:46:58.108Z,24.20
2018-02-05T04:49:26.434Z,24.80
2018-02-05T04:51:54.742Z,24.70
2018-02-05T04:54:23.080Z,23.23
2018-02-05T04:56:50.867Z,29.13
2018-02-05T04:59:18.435Z,27.23
2018-02-05T05:01:46.750Z,28.07
2018-02-05T05:04:15.092Z,25.40
2018-02-05T05:06:43.487Z,24.53
2018-02-05T05:09:11.826Z,29.47
2018-02-05T05:11:40.150Z,25.57
2018-02-05T05:14:08.482Z,29.13
2018-02-05T05:16:36.034Z,23.67
2018-02-05T05:19:04.007Z,27.47
2018-02-05T05:21:32.015Z,27.17
2018-02-05T05:23:59.978Z,24.30
2018-02-05T05:26:28.286Z,27.30
2018-02-05T05:28:56.250Z,26.27
2018-02-05T05:31:24.936Z,26.67
2018-02-05T05:33:52.511Z,25.87
2018-02-05T05:36:20.063Z,27.30
2018-02-05T05:38:48.770Z,26.77
2018-02-05T05:41:16.358Z,28.67
2018-02-05T05:43:44.746Z,27.50
2018-02-05T05:46:13.086Z,26.97
2018-02-05T05:48:41.413Z,25.20
2018-02-05T05:51:09.751Z,31.20
2018-02-05T05:53:38.806Z,26.63
2018-02-05T05:56:06.394Z,29.70
2018-02-05T05:58:34.033Z,25.70
2018-02-05T06:01:02.374Z,29.47
2018-02-05T06:03:30.320Z,26.77
2018-02-05T06:05:58.655Z,30.87
2018-02-05T06:08:26.599Z,31.97
2018-02-05T06:10:54.176Z,28.27
2018-02-05T06:13:22.127Z,28.53
2018-02-05T06:15:50.631Z,26.93
2018-02-05T06:18:18.944Z,24.67
2018-02-05T06:20:48.179Z,25.30
2018-02-05T06:23:15.781Z,24.30
2018-02-05T06:25:43.751Z,30.37
2018-02-05T06:28:12.069Z,27.53
2018-02-05T06:30:40.409Z,27.87
2018-02-05T06:33:07.954Z,30.03
2018-02-05T06:35:36.184Z,25.70
2018-02-05T06:38:04.892Z,31.40
2018-02-05T06:40:32.463Z,27.17
2018-02-05T06:43:00.023Z,30.03
2018-02-05T06:45:27.983Z,27.60
2018-02-05T06:47:56.387Z,27.47
2018-02-05T06:50:36.674Z,25.20
2018-02-05T06:53:16.052Z,30.87
2018-02-05T06:55:46.974Z,25.87
2018-02-05T06:58:15.298Z,27.20
2018-02-05T07:00:42.915Z,23.33
2018-02-05T07:03:11.232Z,25.63
2018-02-05T07:05:39.572Z,22.80
2018-02-05T07:08:07.881Z,28.70
2018-02-05T07:10:35.425Z,21.43
2018-02-05T07:13:03.379Z,23.83
2018-02-05T07:15:31.691Z,28.27
2018-02-05T07:18:00.035Z,26.47
2018-02-05T07:20:28.383Z,21.37
2018-02-05T07:22:56.729Z,25.03
2018-02-05T07:25:24.285Z,23.80
2018-02-05T07:27:52.410Z,22.40
2018-02-05T07:30:20.412Z,22.90
2018-02-05T07:32:48.750Z,22.33
2018-02-05T07:35:17.811Z,22.10
2018-02-05T07:37:45.467Z,24.37
2018-02-05T07:40:13.780Z,21.93
2018-02-05T07:42:42.850Z,24.37
2018-02-05T07:45:10.388Z,22.03
2018-02-05T07:47:37.953Z,23.80
2018-02-05T07:50:06.638Z,22.67
2018-02-05T07:52:34.279Z,23.87
2018-02-05T07:55:02.594Z,24.00
2018-02-05T07:57:30.561Z,25.47
2018-02-05T07:59:58.120Z,23.50
2018-02-05T08:02:26.078Z,26.37
2018-02-05T08:04:53.618Z,23.50
2018-02-05T08:07:21.585Z,22.53
2018-02-05T08:09:49.657Z,23.07
2018-02-05T08:12:17.254Z,25.67
2018-02-05T08:14:46.307Z,24.60
2018-02-05T08:17:14.476Z,22.37
2018-02-05T08:19:42.420Z,18.87
2018-02-05T08:22:10.559Z,18.17
2018-02-05T08:24:38.606Z,21.37
2018-02-05T08:27:07.698Z,19.30
2018-02-05T08:29:36.016Z,17.20
2018-02-05T08:32:04.491Z,17.97
2018-02-05T08:34:32.820Z,20.47
2018-02-05T08:37:00.359Z,19.03
2018-02-05T08:39:28.827Z,22.47
2018-02-05T08:41:57.282Z,19.50
2018-02-05T08:44:25.623Z,20.40
2018-02-05T08:46:53.939Z,20.87
2018-02-05T08:49:22.275Z,19.43
2018-02-05T08:51:50.590Z,19.90
2018-02-05T08:54:19.057Z,17.80
2018-02-05T08:56:47.387Z,18.57
2018-02-05T08:59:15.719Z,19.80
2018-02-05T09:01:43.656Z,18.70
2018-02-05T09:04:11.234Z,19.33
2018-02-05T09:06:39.311Z,18.63
2018-02-05T09:09:07.280Z,16.23
2018-02-05T09:11:35.600Z,19.33
2018-02-05T09:14:03.945Z,14.90
2018-02-05T09:16:32.122Z,17.83
2018-02-05T09:19:01.257Z,16.60
2018-02-05T09:21:29.586Z,16.00
2018-02-05T09:23:57.922Z,15.07
2018-02-05T09:26:26.267Z,14.17
2018-02-05T09:28:54.410Z,16.20
2018-02-05T09:31:22.371Z,17.90
2018-02-05T09:33:49.927Z,13.87
2018-02-05T09:36:17.478Z,14.77
2018-02-05T09:38:45.458Z,14.90
2018-02-05T09:41:13.762Z,16.80
2018-02-05T09:43:42.097Z,21.00
2018-02-05T09:46:10.414Z,14.83
2018-02-05T09:48:38.756Z,15.57
2018-02-05T09:51:07.083Z,15.67
2018-02-05T09:53:35.421Z,14.57
2018-02-05T09:56:03.811Z,16.53
2018-02-05T09:58:32.878Z,19.03
2018-02-05T10:01:01.649Z,18.13
2018-02-05T10:03:29.237Z,13.17
2018-02-05T10:05:57.558Z,17.07
2018-02-05T10:08:25.523Z,19.63
2018-02-05T10:10:53.494Z,11.50
2018-02-05T10:13:21.804Z,13.77
2018-02-05T10:15:49.380Z,13.80
2018-02-05T10:18:17.706Z,15.80
2018-02-05T10:20:45.729Z,12.47
2018-02-05T10:23:13.290Z,13.40
2018-02-05T10:25:41.255Z,14.47
2018-02-05T10:28:09.217Z,13.30
2018-02-05T10:30:36.784Z,13.90
2018-02-05T10:33:05.094Z,12.23
2018-02-05T10:35:33.429Z,14.60
2018-02-05T10:38:01.113Z,14.77
2018-02-05T10:40:28.740Z,15.00
2018-02-05T10:42:57.081Z,12.33
2018-02-05T10:45:25.423Z,12.47
2018-02-05T10:47:52.982Z,13.80
2018-02-05T10:50:20.930Z,12.93
2018-02-05T10:52:48.474Z,14.27
2018-02-05T10:55:16.430Z,13.70
2018-02-05T10:57:44.778Z,11.13
2018-02-05T11:00:13.107Z,14.10
2018-02-05T11:02:41.423Z,15.53
2018-02-05T11:05:09.835Z,11.80
2018-02-05T11:07:38.146Z,14.90
2018-02-05T11:10:05.714Z,14.37
2018-02-05T11:12:33.264Z,13.17
2018-02-05T11:15:00.855Z,13.87
2018-02-05T11:17:28.804Z,12.27
2018-02-05T11:19:56.418Z,13.23
2018-02-05T11:22:24.731Z,15.70
2018-02-05T11:24:52.275Z,16.13
2018-02-05T11:27:19.841Z,14.17
2018-02-05T11:29:47.387Z,14.47
2018-02-05T11:32:14.958Z,13.30
2018-02-05T11:34:42.914Z,13.80
2018-02-05T11:37:11.070Z,15.90
2018-02-05T11:39:39.397Z,16.50
2018-02-05T11:42:06.956Z,12.53
2018-02-05T11:44:34.507Z,12.97
2018-02-05T11:47:02.079Z,13.60
2018-02-05T11:49:29.642Z,18.87
2018-02-05T11:51:57.203Z,14.37
2018-02-05T11:54:24.776Z,13.10
2018-02-05T11:56:52.355Z,13.47
2018-02-05T11:59:19.903Z,12.33
2018-02-05T12:01:47.473Z,10.97
2018-02-05T12:04:16.323Z,12.10
2018-02-05T12:06:44.101Z,11.73
2018-02-05T12:09:12.427Z,14.17
2018-02-05T12:11:40.471Z,15.73
2018-02-05T12:14:08.546Z,11.50
2018-02-05T12:16:36.430Z,15.73
2018-02-05T12:19:04.029Z,13.20
2018-02-05T12:21:32.524Z,13.10
2018-02-05T12:24:00.845Z,11.27
2018-02-05T12:26:28.409Z,12.43
2018-02-05T12:28:55.958Z,16.73
2018-02-05T12:31:23.527Z,16.43
2018-02-05T12:33:51.091Z,13.00
2018-02-05T12:36:19.417Z,16.10
2018-02-05T12:38:47.817Z,12.93
2018-02-05T12:41:15.391Z,11.37
2018-02-05T12:43:42.978Z,11.20
2018-02-05T12:46:10.514Z,15.17
2018-02-05T12:48:38.212Z,11.87
2018-02-05T12:51:05.786Z,12.27
2018-02-05T12:53:34.126Z,10.33
2018-02-05T12:56:01.686Z,11.57
2018-02-05T12:58:39.238Z,10.83
2018-02-05T13:04:26.063Z,11.40
2018-02-05T13:06:54.079Z,9.70
2018-02-05T13:09:22.410Z,11.80
2018-02-05T13:11:50.941Z,12.83
2018-02-05T13:14:19.282Z,16.80
2018-02-05T13:16:47.243Z,13.43
2018-02-05T13:19:15.585Z,14.63
2018-02-05T13:21:43.134Z,12.77
2018-02-05T13:24:11.208Z,12.17
2018-02-05T13:26:39.530Z,12.77
2018-02-05T13:29:07.862Z,13.07
2018-02-05T13:31:35.423Z,11.47
2018-02-05T13:34:03.011Z,10.87
2018-02-05T13:36:31.370Z,13.10
2018-02-05T13:38:58.932Z,12.33
2018-02-05T13:41:26.475Z,11.20
2018-02-05T13:43:54.054Z,10.80
2018-02-05T13:46:21.603Z,11.17
2018-02-05T13:48:49.201Z,12.80
2018-02-05T13:51:18.132Z,12.07
2018-02-05T13:53:45.735Z,10.70
2018-02-05T13:56:14.042Z,14.07
2018-02-05T13:58:42.245Z,9.37
2018-02-05T14:01:09.799Z,11.23
2018-02-05T14:03:38.511Z,12.17
2018-02-05T14:06:06.081Z,10.00
2018-02-05T14:08:34.414Z,12.20
2018-02-05T14:11:03.478Z,9.53
2018-02-05T14:13:31.449Z,11.87
2018-02-05T14:15:59.415Z,9.80
2018-02-05T14:18:27.803Z,10.67
2018-02-05T14:20:56.170Z,11.00
2018-02-05T14:23:24.523Z,10.33
2018-02-05T14:25:53.580Z,13.20
2018-02-05T14:28:21.165Z,11.60
2018-02-05T14:30:49.516Z,11.37
2018-02-05T14:33:17.826Z,12.37
2018-02-05T14:35:46.934Z,10.57
2018-02-05T14:38:14.551Z,10.80
2018-02-05T14:40:42.898Z,12.00
2018-02-05T14:43:11.202Z,11.10
2018-02-05T14:45:38.761Z,9.40
2018-02-05T14:48:07.452Z,11.20
2018-02-05T14:50:35.027Z,19.87
2018-02-05T14:53:03.351Z,11.63
2018-02-05T14:55:31.841Z,14.60
2018-02-05T14:58:00.162Z,14.07
2018-02-05T15:00:28.499Z,11.17
2018-02-05T15:02:56.815Z,13.53
2018-02-05T15:05:25.206Z,12.53
2018-02-05T15:07:53.515Z,11.40
2018-02-05T15:10:21.084Z,11.43
2018-02-05T15:12:49.031Z,10.67
2018-02-05T15:15:17.733Z,10.80
2018-02-05T15:17:46.496Z,12.27
2018-02-05T15:20:14.067Z,11.17
2018-02-05T15:22:42.372Z,14.20
2018-02-05T15:25:10.709Z,14.70
2018-02-05T15:27:39.019Z,15.83
2018-02-05T15:30:07.348Z,16.60
2018-02-05T15:32:35.692Z,12.00
2018-02-05T15:35:03.366Z,12.63
2018-02-05T15:37:31.313Z,13.93
2018-02-05T15:39:59.671Z,12.10
2018-02-05T15:42:27.981Z,13.33
2018-02-05T15:44:56.310Z,11.37
2018-02-05T15:47:24.642Z,12.57
2018-02-05T15:49:52.954Z,12.07
2018-02-05T15:52:21.387Z,12.43
2018-02-05T15:54:51.963Z,11.97
2018-02-05T15:57:19.662Z,12.50
2018-02-05T15:59:47.611Z,16.70
2018-02-05T16:02:17.446Z,13.70
2018-02-05T16:04:45.770Z,13.73
2018-02-05T16:07:14.107Z,11.83
2018-02-05T16:09:42.554Z,14.27
2018-02-05T16:12:10.927Z,12.60
2018-02-05T16:14:39.261Z,17.47
2018-02-05T16:17:07.627Z,11.93
2018-02-05T16:19:35.954Z,14.23
2018-02-05T16:22:04.294Z,16.63
2018-02-05T16:24:34.103Z,16.53
2018-02-05T16:27:02.554Z,16.97
2018-02-05T16:29:30.632Z,15.03
2018-02-05T16:31:58.962Z,16.87
2018-02-05T16:34:27.279Z,11.10
2018-02-05T16:36:54.846Z,10.13
2018-02-05T16:39:22.779Z,12.03
2018-02-05T16:41:51.107Z,11.13
2018-02-05T16:44:18.647Z,12.13
2018-02-05T16:46:46.606Z,12.40
2018-02-05T16:49:14.932Z,11.83
2018-02-05T16:51:43.266Z,10.20
2018-02-05T16:54:11.644Z,11.87
2018-02-05T16:56:39.586Z,8.60
2018-02-05T16:59:08.045Z,13.90
2018-02-05T17:01:36.377Z,11.07
2018-02-05T17:04:04.363Z,29.03
2018-02-05T17:06:33.076Z,31.17
2018-02-05T17:09:02.148Z,22.67
2018-02-05T17:11:30.107Z,26.80
2018-02-05T17:13:58.470Z,21.70
2018-02-05T17:16:26.799Z,16.10
2018-02-05T17:18:55.858Z,11.30
2018-02-05T17:21:23.412Z,11.63
2018-02-05T17:23:51.362Z,9.80
2018-02-05T17:26:19.391Z,10.80
2018-02-05T17:28:47.354Z,10.30
2018-02-05T17:31:15.662Z,11.67
2018-02-05T17:33:43.988Z,9.53
2018-02-05T17:36:11.536Z,10.50
2018-02-05T17:38:40.231Z,9.87
2018-02-05T17:41:07.772Z,10.90
2018-02-05T17:43:35.351Z,11.57
2018-02-05T17:46:02.899Z,10.60
2018-02-05T17:48:30.466Z,14.40
2018-02-05T17:50:58.408Z,12.47
2018-02-05T17:53:26.739Z,14.20
2018-02-05T17:55:55.048Z,16.13
2018-02-05T17:58:23.387Z,19.90
2018-02-05T18:00:51.018Z,25.83
2018-02-05T18:03:18.994Z,11.97
2018-02-05T18:05:46.938Z,18.10
2018-02-05T18:08:14.499Z,13.27
2018-02-05T18:10:42.443Z,12.53
2018-02-05T18:13:10.782Z,11.60
2018-02-05T18:15:38.315Z,12.90
2018-02-05T18:18:07.135Z,12.70
2018-02-05T18:20:34.682Z,16.13
2018-02-05T18:23:03.011Z,13.60
2018-02-05T18:25:31.316Z,15.43
2018-02-05T18:27:59.281Z,12.20
2018-02-05T18:30:27.695Z,11.63
2018-02-05T18:32:55.261Z,13.97
2018-02-05T18:35:23.230Z,11.63
2018-02-05T18:37:50.782Z,12.80
2018-02-05T18:40:18.771Z,13.43
2018-02-05T18:42:46.719Z,14.20
2018-02-05T18:45:14.690Z,10.70
2018-02-05T18:47:42.243Z,12.70
2018-02-05T18:50:09.822Z,11.47
2018-02-05T18:52:37.876Z,14.10
2018-02-05T18:55:06.215Z,14.90
2018-02-05T18:57:34.142Z,12.20
2018-02-05T19:00:14.423Z,13.87
2018-02-05T19:02:44.010Z,13.87
2018-02-05T19:05:11.974Z,16.13
2018-02-05T19:07:40.339Z,16.57
2018-02-05T19:10:08.661Z,14.27
2018-02-05T19:12:36.214Z,19.67
2018-02-05T19:15:04.507Z,18.30
2018-02-05T19:17:33.192Z,18.80
2018-02-05T19:20:00.766Z,16.37
2018-02-05T19:22:29.274Z,14.63
2018-02-05T19:24:57.627Z,15.07
2018-02-05T19:27:25.572Z,18.73
2018-02-05T19:29:53.154Z,14.13
2018-02-05T19:32:21.097Z,15.43
2018-02-05T19:34:48.666Z,10.93
2018-02-05T19:37:16.622Z,16.77
2018-02-05T19:39:45.134Z,15.03
2018-02-05T19:42:13.076Z,12.67
2018-02-05T19:44:40.657Z,16.03
2018-02-05T19:47:08.607Z,13.60
2018-02-05T19:49:37.678Z,13.70
2018-02-05T19:52:05.642Z,13.23
2018-02-05T19:54:33.614Z,16.20
2018-02-05T19:57:01.666Z,19.40
2018-02-05T19:59:29.221Z,15.23
2018-02-05T20:01:57.186Z,13.50
2018-02-05T20:04:24.766Z,15.63
2018-02-05T20:06:52.748Z,14.07
2018-02-05T20:09:21.061Z,14.17
2018-02-05T20:11:49.397Z,17.40
2018-02-05T20:14:17.724Z,20.00
2018-02-05T20:16:46.063Z,12.17
2018-02-05T20:19:14.007Z,14.77
2018-02-05T20:22:01.322Z,13.17
2018-02-05T20:24:30.419Z,19.90
2018-02-05T20:26:58.805Z,20.77
2018-02-05T20:29:26.797Z,16.17
2018-02-05T20:31:55.122Z,16.10
2018-02-05T20:34:23.442Z,16.00
2018-02-05T20:36:51.006Z,16.03
2018-02-05T20:39:18.596Z,17.43
2018-02-05T20:41:46.173Z,18.10
2018-02-05T20:44:13.737Z,18.33
2018-02-05T20:46:42.506Z,18.10
2018-02-05T20:49:10.277Z,16.43
2018-02-05T20:51:37.931Z,16.20
2018-02-05T20:54:05.473Z,15.80
2018-02-05T20:56:33.768Z,18.73
2018-02-05T20:59:02.121Z,15.50
2018-02-05T21:01:30.414Z,17.27
2018-02-05T21:03:58.072Z,14.37
2018-02-05T21:06:26.562Z,17.57
2018-02-05T21:08:55.002Z,22.07
2018-02-05T21:11:23.338Z,17.50
2018-02-05T21:13:51.300Z,17.47
2018-02-05T21:16:18.889Z,18.30
2018-02-05T21:18:46.488Z,17.60
2018-02-05T21:21:14.296Z,17.87
2018-02-05T21:23:42.296Z,19.40
2018-02-05T21:26:11.022Z,17.70
2018-02-05T21:28:39.005Z,17.37
2018-02-05T21:31:07.410Z,15.87
2018-02-05T21:33:35.925Z,16.63
2018-02-05T21:36:03.700Z,18.30
2018-02-05T21:38:31.725Z,17.70
2018-02-05T21:41:00.045Z,17.93
2018-02-05T21:43:27.640Z,19.33
2018-02-05T21:45:55.971Z,15.67
2018-02-05T21:48:24.521Z,17.73
2018-02-05T21:50:53.029Z,15.67
2018-02-05T21:53:23.868Z,20.40
2018-02-05T21:55:52.226Z,16.20
2018-02-05T21:58:20.562Z,16.70
2018-02-05T22:00:48.916Z,17.10
2018-02-05T22:03:17.946Z,20.33
2018-02-05T22:05:45.560Z,24.27
2018-02-05T22:08:13.140Z,20.77
2018-02-05T22:10:41.101Z,18.37
2018-02-05T22:13:09.434Z,19.07
2018-02-05T22:15:37.382Z,23.63
2018-02-05T22:18:05.170Z,18.73
2018-02-05T22:20:33.165Z,18.80
2018-02-05T22:23:03.461Z,17.70
2018-02-05T22:25:31.759Z,17.23
2018-02-05T22:27:59.452Z,18.87
2018-02-05T22:30:27.952Z,17.50
2018-02-05T22:32:57.073Z,25.73
2018-02-05T22:35:26.305Z,17.40
2018-02-05T22:37:54.425Z,19.63
2018-02-05T22:40:22.749Z,22.10
2018-02-05T22:42:52.873Z,20.83
2018-02-05T22:45:20.838Z,21.27
2018-02-05T22:47:48.485Z,24.67
2018-02-05T22:50:16.839Z,27.70
2018-02-05T22:52:44.877Z,27.87
2018-02-05T22:55:13.075Z,20.50
2018-02-05T22:57:42.126Z,18.33
2018-02-05T23:00:09.697Z,22.00
2018-02-05T23:02:37.778Z,20.07
2018-02-05T23:05:07.964Z,20.60
2018-02-05T23:07:35.938Z,21.47
2018-02-05T23:10:04.691Z,21.80
2018-02-05T23:12:32.642Z,20.67
2018-02-05T23:15:01.075Z,20.07
2018-02-05T23:17:28.625Z,17.50
2018-02-05T23:19:56.656Z,19.37
2018-02-05T23:22:24.751Z,21.13
2018-02-05T23:24:53.174Z,21.33
2018-02-05T23:27:21.493Z,20.93
2018-02-05T23:29:49.951Z,20.50
2018-02-05T23:32:17.902Z,18.50
2018-02-05T23:34:46.056Z,19.43
2018-02-05T23:37:13.826Z,21.00
2018-02-05T23:39:41.842Z,19.50
2018-02-05T23:42:10.373Z,22.37
2018-02-05T23:44:37.947Z,20.33
2018-02-05T23:47:05.526Z,21.10
2018-02-05T23:49:33.898Z,21.80
2018-02-05T23:52:02.559Z,19.93
2018-02-05T23:54:33.467Z,24.83
2018-02-05T23:57:01.014Z,20.23
2018-02-05T23:59:29.359Z,20.20
